Date,TemperatureHighF,TemperatureAvgF,TemperatureLowF,DewpointHighF,DewpointAvgF,DewpointLowF,HumidityHigh,HumidityAvg,HumidityLow,PressureMaxIn,PressureMinIn,WindSpeedMaxMPH,WindSpeedAvgMPH,GustSpeedMaxMPH,PrecipitationSumIn
2013-3-1,39.0,35.7,35.0,28.0,26.6,24.0,76,69,60,30.28,30.17,5,2,10,0.00
2013-3-2,45.0,36.5,31.0,24.0,21.9,19.0,71,56,39,30.31,30.16,3,1,10,0.00
2013-3-3,39.0,35.4,30.0,26.0,23.2,20.0,66,61,53,30.28,30.15,5,1,13,0.00
2013-3-4,50.0,40.1,32.0,25.0,21.7,19.0,71,49,31,30.32,30.23,2,0,7,0.00
2013-3-5,55.0,40.8,30.0,30.0,25.1,20.0,70,54,37,30.24,29.93,3,1,7,0.00
2013-3-6,57.0,45.3,32.0,34.0,29.9,25.0,77,55,42,29.94,29.70,3,1,7,0.00
2013-3-7,51.0,46.4,41.0,44.0,38.2,33.0,88,73,62,29.71,29.64,2,0,5,0.00
2013-3-8,49.0,46.3,42.0,44.0,41.1,38.0,90,82,76,29.72,29.68,2,1,6,0.00
2013-3-9,43.0,41.8,40.0,40.0,38.9,37.0,93,89,86,29.72,29.64,1,0,5,0.01
2013-3-10,57.0,48.4,41.0,44.0,40.6,34.0,95,76,46,29.65,29.50,3,0,8,0.01
2013-3-11,46.0,32.0,27.0,41.0,24.0,18.0,90,72,63,29.75,29.50,4,1,13,0.13
2013-3-12,31.0,28.3,26.0,23.0,20.2,18.0,78,72,66,29.73,29.57,3,1,8,0.04
2013-3-13,30.0,26.4,24.0,22.0,17.1,14.0,86,68,58,29.78,29.57,3,2,10,0.04
2013-3-14,33.0,26.9,22.0,15.0,11.9,8.0,71,54,36,29.87,29.78,5,2,15,0.00
2013-3-15,32.0,26.9,22.0,16.0,13.8,8.0,74,58,38,30.11,29.85,5,2,13,0.00
2013-3-16,44.0,30.6,21.0,16.0,11.5,4.0,72,47,21,30.19,30.06,2,1,7,0.03
2013-3-17,44.0,33.0,24.0,17.0,13.7,10.0,58,45,32,30.07,29.74,3,1,10,0.03
2013-3-18,43.0,34.4,30.0,31.0,24.1,17.0,90,67,46,29.74,29.30,3,1,7,0.01
2013-3-19,43.0,36.1,32.0,33.0,30.2,27.0,92,79,64,29.64,29.29,2,0,9,0.23
2013-3-20,51.0,41.7,34.0,37.0,31.2,29.0,83,67,47,29.84,29.64,3,1,8,0.01
2013-3-21,40.0,35.5,31.0,35.0,25.3,19.0,85,67,51,30.11,29.83,7,2,17,0.01
2013-3-22,33.0,30.8,28.0,23.0,18.4,15.0,78,60,47,30.16,30.11,5,2,15,0.00
2013-3-23,34.0,26.8,19.0,17.0,7.0,-3.0,60,44,26,30.24,30.15,5,2,10,0.00
2013-3-24,37.0,22.2,16.0,9.0,2.8,-3.0,52,43,23,30.25,30.11,4,2,13,0.00
2013-3-25,31.0,27.5,23.0,11.0,8.3,5.0,54,44,32,30.14,29.96,4,2,13,0.00
2013-3-26,32.0,29.0,27.0,7.0,4.9,0.0,40,35,25,29.97,29.91,5,2,10,0.00
2013-3-27,31.0,30.3,28.0,23.0,17.3,6.0,72,59,38,29.96,29.93,4,1,8,0.00
2013-3-28,37.0,34.5,30.0,32.0,23.3,20.0,94,63,56,29.94,25.21,1,0,5,0.00
2013-3-29,40.0,37.1,35.0,25.0,21.3,18.0,67,53,40,29.81,29.75,3,1,8,0.00
2013-3-30,45.0,37.5,33.0,24.0,21.7,20.0,65,53,40,29.79,29.71,3,1,10,0.00
2013-3-31,38.0,34.2,31.0,27.0,22.1,19.0,80,62,49,29.84,29.75,6,2,17,0.00